• Join FlightAware (Why Join?)
  • Login
  • US Flag 
05:53AM EDT


 

Airport Tracker/Info


-or-


 

Live Flight TrackerFlight Track Log ✈ LXJ537 ✈ 11-May-2012 ✈ KPBI - KTEB

Flight Track Log - Related Links

Times and Time Zones

All times are in EDT time to prevent confusion due to time zone crossing. See the LXJ537 flight status page for this flight to view local times or setup timezone preferences in your user account.

Time Position Orientation Groundspeed Altitude Reporting Facility
EDT Latitude Longitude Course Direction KTS MPH feet Rate Location/Type
12:20PM 26.7347 -79.9503 50° Northeast 287 330 7,700  Level Miami Center
12:24PM 26.9903 -79.6097 55° Northeast 371 427 14,600 1,920 Climbing Miami Center
12:25PM 27.0525 -79.5108 54° Northeast 383 441 17,300 2,460 Climbing Miami Center
12:26PM 27.1128 -79.4189 53° Northeast 395 455 19,600 2,340 Climbing Miami Center
12:27PM 27.1856 -79.3108 55° Northeast 414 476 22,000 2,160 Climbing Miami Center
12:28PM 27.2628 -79.1886 54° Northeast 436 502 24,000 1,860 Climbing Miami Center
12:29PM 27.3397 -79.0708 54° Northeast 451 519 25,800 1,920 Climbing Miami Center
12:30PM 27.4167 -78.9531 55° Northeast 457 526 27,900 1,980 Climbing Miami Center
12:31PM 27.4831 -78.8467 27° Northeast 462 532 29,800 2,040 Climbing Miami Center
12:32PM 27.6008 -78.7783 North 428 493 32,000 1,800 Climbing Miami Center
12:33PM 27.7242 -78.7639 North 420 483 33,400 1,500 Climbing Miami Center
12:34PM 27.8478 -78.7472 North 440 506 35,000 1,920 Climbing Miami Center
12:35PM 27.9606 -78.7325 North 431 496 37,300 2,340 Climbing Miami Center
12:36PM 28.0714 -78.7181 North 408 470 39,700 1,620 Climbing Miami Center
12:37PM 28.1761 -78.7056 North 384 442 40,600 840 Climbing Miami Center
12:38PM 28.2869 -78.6908 North 382 440 41,400 660 Climbing Miami Center
12:39PM 28.3936 -78.6761 North 387 445 42,000 600 Climbing Miami Center
12:40PM 28.5042 -78.6614 North 392 451 42,700 600 Climbing Miami Center
12:41PM 28.6131 -78.6489 North 386 444 43,300 540 Climbing Miami Center
12:42PM 28.7300 -78.6364 North 399 459 43,800 540 Climbing Miami Center
12:43PM 28.8386 -78.6192 North 404 465 44,400 480 Climbing Miami Center
12:44PM 28.9453 -78.6019 North 404 465 44,800 300 Climbing Miami Center
12:45PM 29.0644 -78.5919 North 404 465 45,000 60 Climbing Miami Center
12:46PM 29.1814 -78.5772 North 416 479 45,000  Level Miami Center
12:47PM 29.2964 -78.5600 North 421 484 45,000  Level Miami Center
12:48PM 29.4133 -78.5403 North 421 484 45,000  Level Miami Center
12:49PM 29.5408 -78.5303 North 435 501 45,000  Level Miami Center
12:50PM 29.6597 -78.5178 North 435 501 45,000  Level Miami Center
12:51PM 29.7747 -78.4981 North 422 486 45,000  Level Miami Center
12:52PM 29.8939 -78.4831 North 422 486 45,000  Level Miami Center
12:53PM 30.0328 -78.4592 North 432 497 45,000  Level Jacksonville Center
12:54PM 30.1556 -78.4489 North 424 488 45,000  Level Jacksonville Center
12:55PM 30.2575 -78.4344 North 401 461 45,000  Level Jacksonville Center
12:56PM 30.3758 -78.4169 North 401 461 45,000  Level Jacksonville Center
12:57PM 30.4964 -78.4017 North 422 486 45,000  Level Jacksonville Center
12:58PM 30.6189 -78.3861 North 422 486 45,000  Level Jacksonville Center
12:59PM 30.7331 -78.3686 North 417 480 45,000  Level Jacksonville Center
01:00PM 30.8578 -78.3556 North 417 480 45,000  Level Jacksonville Center
01:01PM 30.9658 -78.3381 North 419 482 45,000  Level Jacksonville Center
01:02PM 31.0986 -78.3197 North 473 544 45,000  Level Jacksonville Center
01:03PM 31.2150 -78.3042 North 429 494 45,000  Level Jacksonville Center
01:04PM 31.3336 -78.2886 North 422 486 45,000  Level Jacksonville Center
01:05PM 31.4478 -78.2758 North 422 486 45,000  Level Jacksonville Center
01:06PM 31.5517 -78.2608 North 415 478 45,000  Level Jacksonville Center
01:07PM 31.6700 -78.2453 North 415 478 45,000  Level Jacksonville Center
01:08PM 31.7906 -78.2294 North 425 489 45,000  Level Jacksonville Center
01:09PM 31.9050 -78.2161 North 425 489 45,000  Level Jacksonville Center
01:10PM 32.0233 -78.2028 North 425 489 45,000  Level Jacksonville Center
01:11PM 32.1417 -78.1869 North 425 489 45,000  Level Jacksonville Center
01:12PM 32.2578 -78.1664 North 425 489 45,000  Level Jacksonville Center
01:13PM 32.3742 -78.1506 North 420 483 45,000  Level Jacksonville Center
01:14PM 32.4906 -78.1369 North 420 483 45,000  Level Jacksonville Center
01:15PM 32.6067 -78.1186 North 420 483 45,000  Level Jacksonville Center
01:16PM 32.7231 -78.1050 North 420 483 45,000  Level Jacksonville Center
01:17PM 32.8414 -78.0864 North 420 483 45,000  Level Jacksonville Center
01:18PM 32.9597 -78.0725 North 420 483 45,000  Level Jacksonville Center
01:19PM 33.0781 -78.0539 North 420 483 45,000  Level Jacksonville Center
01:20PM 33.1964 -78.0375 North 420 483 45,000  Level Jacksonville Center
01:22PM 33.4739 -78.0014 North 416 479 45,000  Level Washington Center
01:23PM 33.5911 -77.9825 North 421 484 45,000  Level Washington Center
01:24PM 33.7081 -77.9683 North 421 484 45,000  Level Washington Center
01:25PM 33.8272 -77.9492 North 426 490 45,000  Level Washington Center
01:26PM 33.9403 -77.9297 North 438 504 45,000  Level Washington Center
01:27PM 34.0575 -77.9206 North 433 498 45,000  Level Washington Center
01:28PM 34.1742 -77.9189 360° North 423 487 45,000  Level Washington Center
01:30PM 34.4122 -77.9181 North 426 490 45,000  Level Washington Center
01:31PM 34.5269 -77.9136 North 420 483 45,000  Level Washington Center
01:32PM 34.6439 -77.9119 North 420 483 45,000  Level Washington Center
01:33PM 34.7628 -77.9078 North 420 483 45,000  Level Washington Center
01:34PM 34.8861 -77.9011 North 414 476 45,000  Level Washington Center
01:35PM 35.0050 -77.8969 North 414 476 45,000  Level Washington Center
01:36PM 35.1200 -77.8925 North 414 476 45,000  Level Washington Center
01:37PM 35.2389 -77.8908 North 414 476 45,000  Level Washington Center
01:38PM 35.3558 -77.8867 North 421 484 45,000  Level Washington Center
01:39PM 35.4728 -77.8850 North 421 484 45,000  Level Washington Center
01:40PM 35.5897 -77.8806 North 421 484 45,000  Level Washington Center
01:41PM 35.7086 -77.8764 360° North 421 484 45,000  Level Washington Center
01:42PM 35.8256 -77.8772 North 421 484 45,000  Level Washington Center
01:43PM 35.9444 -77.8753 North 421 484 45,000  Level Washington Center
01:44PM 36.0508 -77.8708 North 421 484 45,000  Level Washington Center
01:45PM 36.1678 -77.8689 North 416 479 45,000  Level Washington Center
01:46PM 36.2847 -77.8672 North 422 486 45,000  Level Washington Center
01:47PM 36.4017 -77.8603 North 422 486 45,000  Level Washington Center
01:48PM 36.5164 -77.8586 North 417 480 45,000  Level Washington Center
01:49PM 36.6311 -77.8567 North 417 480 45,000  Level Washington Center
01:50PM 36.7481 -77.8522 North 417 480 45,000  Level Washington Center
01:51PM 36.8650 -77.8478 21° North 417 480 45,000  Level Washington Center
01:52PM 36.9744 -77.7964 26° Northeast 417 480 45,000  Level Washington Center
01:53PM 37.0822 -77.7292 25° Northeast 417 480 45,000  Level Washington Center
01:54PM 37.1917 -77.6644 24° Northeast 417 480 45,000  Level Washington Center
01:55PM 37.3014 -77.6022 26° Northeast 423 487 45,000  Level Washington Center
01:56PM 37.4067 -77.5369 24° Northeast 423 487 45,000  Level Washington Center
01:57PM 37.5161 -77.4744 27° Northeast 423 487 45,000  Level Washington Center
01:58PM 37.6236 -77.4061 24° Northeast 423 487 45,000  Level Washington Center
01:59PM 37.7331 -77.3433 26° Northeast 423 487 45,000  Level Washington Center
02:00PM 37.8444 -77.2747 28° Northeast 428 493 45,000  Level Washington Center
02:01PM 37.9519 -77.2008 33° Northeast 428 493 45,000 -420 Level Washington Center
02:02PM 38.0550 -77.1158 32° Northeast 435 501 44,200 -960 Descending Washington Center
02:03PM 38.1606 -77.0311 32° Northeast 440 506 43,100 -1,440 Descending Washington Center
02:04PM 38.2656 -76.9483 32° Northeast 445 512 41,400 -1,980 Descending Washington Center
02:05PM 38.3792 -76.8578 32° Northeast 440 506 39,100 -2,220 Descending Washington Center
02:06PM 38.4675 -76.7875 32° Northeast 425 489 37,000 -2,160 Descending Washington Center
02:07PM 38.5664 -76.7069 32° Northeast 419 482 34,900 -2,100 Descending Washington Center
02:08PM 38.6692 -76.6261 32° Northeast 419 482 32,800 -1,920 Descending Washington Center
02:09PM 38.7719 -76.5450 33° Northeast 425 489 31,000 -1,500 Descending Washington Center
02:10PM 38.8686 -76.4636 32° Northeast 425 489 29,900 -1,680 Descending Washington Center
02:11PM 38.9650 -76.3872 32° Northeast 412 474 27,800 -2,040 Descending Washington Center
02:12PM 39.0614 -76.3108 33° Northeast 407 468 25,800 -1,920 Descending Washington Center
02:13PM 39.1556 -76.2314 44° Northeast 407 468 24,000 -900 Descending Washington Center
02:14PM 39.2331 -76.1356 36° Northeast 395 455 24,000 -60 Level Washington Center
02:15PM 39.3208 -76.0531 40° Northeast 390 449 23,900 -960 Descending Washington Center
02:16PM 39.3894 -75.9778 35° Northeast 373 429 22,400 -1,980 Descending FAA TRACON SMA TRACON (SMA)
02:17PM 39.4467 -75.9250 36° Northeast 364 419 21,100 -2,100 Descending FAA TRACON SMA TRACON (SMA)
02:18PM 39.5025 -75.8717 36° Northeast 360 414 19,600 -2,040 Descending FAA TRACON SMA TRACON (SMA)
02:18PM 39.5519 -75.8256 36° Northeast 358 412 18,400 -1,800 Descending FAA TRACON SMA TRACON (SMA)
02:19PM 39.6086 -75.7722 35° Northeast 362 417 17,200 -1,980 Descending FAA TRACON SMA TRACON (SMA)
02:20PM 39.6686 -75.7181 35° Northeast 376 433 15,800 -1,980 Descending FAA TRACON SMA TRACON (SMA)
02:20PM 39.7200 -75.6708 36° Northeast 363 418 14,600 -1,920 Descending FAA TRACON SMA TRACON (SMA)
02:21PM 39.7747 -75.6197 35° Northeast 352 405 13,300 -1,200 Descending FAA TRACON SMA TRACON (SMA)
02:22PM 39.8289 -75.5711 36° Northeast 338 389 13,000 -240 Descending FAA TRACON SMA TRACON (SMA)
02:22PM 39.8722 -75.5303 35° Northeast 285 328 13,000  Level FAA TRACON SMA TRACON (SMA)
02:23PM 39.9153 -75.4906 35° Northeast 274 315 13,000  Level FAA TRACON SMA TRACON (SMA)
02:24PM 39.9550 -75.4536 36° Northeast 279 321 13,000  Level FAA TRACON SMA TRACON (SMA)
02:24PM 39.9992 -75.4122 36° Northeast 280 322 13,000  Level FAA TRACON SMA TRACON (SMA)
02:25PM 40.0389 -75.3747 35° Northeast 238 274 13,000  Level FAA TRACON SMA TRACON (SMA)
02:26PM 40.0719 -75.3447 36° Northeast 235 270 13,000 -420 Level FAA TRACON SMA TRACON (SMA)
02:26PM 40.1083 -75.3106 35° Northeast 232 267 12,500 -1,080 Descending FAA TRACON SMA TRACON (SMA)
02:27PM 40.1450 -75.2764 35° Northeast 234 269 11,600 -1,140 Descending FAA TRACON SMA TRACON (SMA)
02:28PM 40.1789 -75.2450 36° Northeast 230 265 11,000 -480 Descending FAA TRACON SMA TRACON (SMA)
02:28PM 40.2119 -75.2136 35° Northeast 224 258 11,000  Level FAA TRACON SMA TRACON (SMA)
02:29PM 40.2475 -75.1806 35° Northeast 227 261 11,000 -540 Level FAA TRACON SMA TRACON (SMA)
02:30PM 40.2794 -75.1508 36° Northeast 228 262 10,300 -1,140 Descending FAA TRACON SMA TRACON (SMA)
02:30PM 40.3144 -75.1181 45° Northeast 224 258 9,500 -1,320 Descending FAA TRACON SMA TRACON (SMA)
02:31PM 40.3450 -75.0778 47° Northeast 228 262 8,600 -1,320 Descending FAA TRACON SMA TRACON (SMA)
02:32PM 40.3714 -75.0411 47° Northeast 225 259 7,800 -1,200 Descending FAA TRACON SMA TRACON (SMA)
02:32PM 40.4022 -74.9978 47° Northeast 233 268 7,000 -600 Descending FAA TRACON SMA TRACON (SMA)
02:33PM 40.4300 -74.9589 47° Northeast 236 272 7,000  Level FAA TRACON SMA TRACON (SMA)
02:34PM 40.4606 -74.9161 47° Northeast 232 267 7,000 -720 Level FAA TRACON SMA TRACON (SMA)
02:34PM 40.4892 -74.8753 47° Northeast 222 255 6,100 -1,260 Descending FAA TRACON SMA TRACON (SMA)
02:35PM 40.5161 -74.8372 48° Northeast 233 268 5,400 -720 Descending FAA TRACON SMA TRACON (SMA)
02:36PM 40.5275 -74.8206 42° Northeast 256 295 5,200 -960 Descending FAA TRACON SMA TRACON (SMA)
02:36PM 40.6000 -74.7333 11° North 262 302 3,900 -720 Descending New York TRACON
02:37PM 40.6667 -74.7167 27° Northeast 253 291 3,900  Level New York TRACON
02:38PM 40.7167 -74.6833 21° North 236 272 3,900  Level New York TRACON
02:39PM 40.7833 -74.6500 37° Northeast 250 288 3,900  Level New York TRACON
02:40PM 40.8333 -74.6000 37° Northeast 239 275 3,900  Level New York TRACON
02:41PM 40.8833 -74.5500 21° North 245 282 3,900 -540 Level New York TRACON
02:42PM 40.9500 -74.5167 49° Northeast 235 270 2,900 -480 Descending New York TRACON
02:43PM 40.9833 -74.4667 105° East 193 222 3,000  Climbing New York TRACON
02:44PM 40.9667 -74.3833 90° East 217 250 3,000 -360 Level New York TRACON
02:45PM 40.9667 -74.3167 90° East 213 245 2,300 -540 Descending New York TRACON
02:46PM 40.9667 -74.2333 108° East 203 234 2,000 -180 Descending New York TRACON
02:47PM 40.9500 -74.1667 108° East 212 244 2,000 -240 Level New York TRACON
02:48PM 40.9333 -74.1000 108° East 215 247 1,600 -420 Descending New York TRACON